Contact Us:
Email: info@sawbill.com
Phone: (218)663-7150
Fax: (218)663-7980
Mail: 4620 Sawbill Trail
Box 2129
Tofte, MN 55615


Powered by
Movable Type 3.15
 
Sawbill Weather History Archives: May 2007
Current Sawbill Weather History | « April 2007 | June 2007 »


Date

High
Temperature

Low
Temperature

Barometric
Pressure

Relative
Humidity 7AM

9 AM
Temperature

Moisture

Snow

5/31/07 69 49 29.99 82% 50 0
5/30/07 81 59 29.96 86% 63 0
5/29/07 79 60 29.99 91% 61 .13"
5/28/07 68 46 29.84 82% 61 0
5/27/07 53 37 30.06 86% 46 .08"
5/26/07 64 45 29.86 85% 48 .17"
5/25/07 66 43 30.17 63% 48 0
5/24/07 62 41 30.13 77% 42 .53"
5/23/07 79 53 30.09 89% 60 .13"
5/22/07 79 53 30.12 88% 62 .07"
5/21/07 54 42 29.92 86% 53 .4"
5/20/07 56 35 30.05 72% 42 0
5/19/07 46 32 30.24 73% 33 Trace Trace
5/18/07 77 45 29.94 79% 46 0
5/17/07 74 41 30.14 57% 45 0
5/16/07 64 41 30.29 83% 41 0
5/15/07 50 35 29.97 79% 48 .02"
5/14/07 79 49 29.73 79% 49 .17"
5/13/07 64 49 29.73 88% 50 .12"
5/12/07 68 34 30.36 52% 49 0
5/11/07 65 35 30.36 68% 38 0
5/10/07 89 32 29.93 61% 44 0
5/9/07 88 48 29.90 70% 56 0
5/8/07 80 44 29.92 80% 48 0
5/7/07 71 49 29.99 80% 51 0
5/6/07 66 49 29.99 46% 53 0
5/5/07 59 46 30.32 24% 48 0
5/4/07 71 37 30.30 45% 49 Trace
5/3/07 67 37 30.22 45% 37 0
5/2/07 59 33 30.21 54% 38 0
5/1/07 51 40 30.20 77% 41 0
 


Home I Trip Planning I Rentals and Outfitting I Reservations I Campgrounds I Sawbill Store I Sawbill News I Contact

© 1997 - 2017, Sawbill Canoe Outfitters, Inc. I Privacy Policy